Nearby METAR Reports

 

KIAD - Wash Dc/Dulles, Virginia, USA
Distance from station: ESE 7mi, 11km
Updated: Tue, 19-Mar-2019 5:52pm EDT
Clear
Clear
 Wind from varies
Wind: varies 3 mph , 6 km/h
Temperature: 48°F , 9°C
Dew Point: 18°F , -8°C
Humidity: 29%
Barometer: 30.38 inHg , 1028.8 hPa
Clouds: Clear
Visibility: 10 miles , 16 km
2019/03/19 21:52 KIAD 192152Z VRB03KT 10SM CLR 09/M08 A3038 RMK AO2 SLP288 T00941083
KJYO - Leesburg/Godfrey, Virginia, USA
Distance from station: N 7mi, 12km
Updated: Tue, 19-Mar-2019 6:35pm EDT
Clear
Clear
 Wind from calm
Wind: Calm
Temperature: 50°F , 10°C
Dew Point: 23°F , -5°C
Humidity: 35%
Barometer: 30.39 inHg , 1029.1 hPa
Clouds: Clear
Visibility: 10 miles , 16 km
2019/03/19 22:35 KJYO 192235Z AUTO 00000KT 10SM CLR 10/M05 A3039 RMK AO2
 
KHEF - Manassas Muni, Virginia, USA
Distance from station: S 17mi, 28km
Updated: Tue, 19-Mar-2019 5:56pm EDT
Few Clouds
Few Clouds
 Wind from N
Wind: N 5 mph , 7 km/h
Temperature: 52°F , 11°C
Dew Point: 19°F , -7°C
Humidity: 28%
Barometer: 30.38 inHg , 1028.8 hPa
Clouds: Few Clouds
Visibility: 10 miles , 16 km
Cloud details: Few Clouds 200 ft
2019/03/19 21:56 KHEF 192156Z 35004KT 10SM FEW002 11/M07 A3038 RMK AO2 SLP300 T01061072 PNO $
KGAI - Gaithersburg, Maryland, USA
Distance from station: NE 26mi, 41km
Updated: Tue, 19-Mar-2019 5:56pm EDT
Clear
Clear
 Wind from WNW
Wind: WNW 7 mph , 11 km/h
Temperature: 48°F , 9°C
Wind Chill: 45°F , 7°C
Dew Point: 18°F , -8°C
Humidity: 29%
Barometer: 30.38 inHg , 1028.8 hPa
Clouds: Clear
Visibility: 10 miles , 16 km
2019/03/19 21:56 KGAI 192156Z AUTO 30006KT 10SM CLR 09/M08 A3038 RMK AO2 SLP319 T00891083
 
KDAA - Fort Belvoir/Dav, Virginia, USA
Distance from station: SE 27mi, 44km
Updated: Tue, 19-Mar-2019 5:56pm EDT
Clear
Clear
 Wind from W
Wind: W 5 mph , 7 km/h
Temperature: 52°F , 11°C
Dew Point: 14°F , -10°C
Humidity: 22%
Barometer: 30.38 inHg , 1028.8 hPa
Clouds: Clear
Visibility: 10 miles , 16 km
2019/03/19 21:56 KDAA 192156Z AUTO 27004KT 10SM CLR 11/M10 A3038 RMK AO2 SLP291 T01121098 $
KHWY - Warrenton, Virginia, USA
Distance from station: SSW 27mi, 44km
Updated: Tue, 19-Mar-2019 6:35pm EDT
Clear
Clear
 Wind from calm
Wind: Calm
Temperature: 50°F , 10°C
Dew Point: 12°F , -11°C
Humidity: 22%
Barometer: 30.38 inHg , 1028.8 hPa
Clouds: Clear
Visibility: 10 miles , 16 km
2019/03/19 22:35 KHWY 192235Z AUTO 00000KT 10SM CLR 10/M11 A3038 RMK AO2 T01011106
 
KDCA - Washington/Natl, Washington D.c., USA
Distance from station: ESE 30mi, 48km
Updated: Tue, 19-Mar-2019 5:52pm EDT
Few Clouds
Few Clouds
 Wind from N
Wind: N 9 mph , 15 km/h
Temperature: 52°F , 11°C
Dew Point: 18°F , -8°C
Humidity: 26%
Barometer: 30.39 inHg , 1029.1 hPa
Clouds: Few Clouds
Visibility: 10 miles , 16 km
Cloud details: Few Clouds 25000 ft
2019/03/19 21:52 KDCA 192152Z 36008KT 10SM FEW250 11/M08 A3039 RMK AO2 SLP290 T01111083
KFDK - Frederick, Maryland, USA
Distance from station: NNE 33mi, 53km
Updated: Tue, 19-Mar-2019 5:47pm EDT
Clear
Clear
 Wind from calm
Wind: Calm
Temperature: 50°F , 10°C
Dew Point: 18°F , -8°C
Humidity: 28%
Barometer: 30.41 inHg , 1029.8 hPa
Clouds: Clear
Visibility: 10 miles , 16 km
2019/03/19 21:47 KFDK 192147Z 00000KT 10SM SKC 10/M08 A3041
 
KOKV - Winchester Rgnl, Virginia, USA
Distance from station: WNW 33mi, 54km
Updated: Tue, 19-Mar-2019 6:35pm EDT
Clear
Clear
 Wind from E
Wind: E 5 mph , 7 km/h
Temperature: 46°F , 8°C
Wind Chill: 44°F , 7°C
Dew Point: 19°F , -7°C
Humidity: 34%
Barometer: 30.37 inHg , 1028.4 hPa
Clouds: Clear
Visibility: 10 miles , 16 km
2019/03/19 22:35 KOKV 192235Z AUTO 10004KT 10SM CLR 08/M07 A3037 RMK AO2
KCJR - Culpeper, Virginia, USA
Distance from station: SSW 34mi, 54km
Updated: Tue, 19-Mar-2019 6:35pm EDT
Clear
Clear
 Wind from calm
Wind: Calm
Temperature: 52°F , 11°C
Dew Point: 16°F , -9°C
Humidity: 24%
Barometer: 30.39 inHg , 1029.1 hPa
Clouds: Clear
Visibility: 10 miles , 16 km
2019/03/19 22:35 KCJR 192235Z AUTO 00000KT 10SM CLR 11/M09 A3039 RMK AO2 T01051087
 
KCGS - College Park, Maryland, USA
Distance from station: E 35mi, 56km
Updated: Tue, 19-Mar-2019 6:24pm EDT
Clear
Clear
 Wind from calm
Wind: Calm
Temperature: 48°F , 9°C
Dew Point: 16°F , -9°C
Humidity: 27%
Barometer: 30.38 inHg , 1028.8 hPa
Clouds: Clear
Visibility: 10 miles , 16 km
2019/03/19 22:24 KCGS 192224Z AUTO 00000KT 10SM CLR 09/M09 A3038 RMK AO1 T00931093
KNYG - Quantico Mcaf, Virginia, USA
Distance from station: SSE 35mi, 57km
Updated: Tue, 19-Mar-2019 5:56pm EDT
Clear
Clear
 Wind from SSE
Wind: SSE 5 mph , 7 km/h
Temperature: 50°F , 10°C
Wind Chill: 48°F , 9°C
Dew Point: 25°F , -4°C
Humidity: 37%
Barometer: 30.40 inHg , 1029.5 hPa
Clouds: Clear
Visibility: 10 miles , 16 km
2019/03/19 21:56 KNYG 192156Z AUTO 15004KT 10SM CLR 10/M04 A3040 RMK AO2 SLP294 T01001039 $
 
KFRR - Fort Royal, Virginia, USA
Distance from station: W 37mi, 59km
Updated: Tue, 19-Mar-2019 6:35pm EDT
Clear
Clear
 Wind from calm
Wind: Calm
Temperature: 48°F , 9°C
Dew Point: 19°F , -7°C
Humidity: 32%
Barometer: 30.34 inHg , 1027.4 hPa
Clouds: Clear
Visibility: 10 miles , 16 km
2019/03/19 22:35 KFRR 192235Z AUTO 00000KT 10SM CLR 09/M07 A3034 RMK AO1
KMRB - Martinsburg, West Virginia, USA
Distance from station: NW 38mi, 61km
Updated: Tue, 19-Mar-2019 5:53pm EDT
Clear
Clear
 Wind from WNW
Wind: WNW 6 mph , 9 km/h
Temperature: 48°F , 9°C
Wind Chill: 45°F , 7°C
Dew Point: 18°F , -8°C
Humidity: 29%
Barometer: 30.35 inHg , 1027.8 hPa
Clouds: Clear
Visibility: 10 miles , 16 km
2019/03/19 21:53 KMRB 192153Z 30005KT 10SM CLR 09/M08 A3035 RMK AO2 SLP281 T00941083
 
KADW - Andrews Afb, Maryland, USA
Distance from station: ESE 39mi, 63km
Updated: Tue, 19-Mar-2019 5:56pm EDT
Clear
Clear
 Wind from ESE
Wind: ESE 10 mph , 17 km/h
Temperature: 48°F , 9°C
Wind Chill: 44°F , 7°C
Dew Point: 16°F , -9°C
Humidity: 27%
Barometer: 30.37 inHg , 1028.4 hPa
Clouds: Clear
Visibility: 10 miles , 16 km
2019/03/19 21:56 KADW 192156Z AUTO 11009KT 10SM CLR 09/M09 A3037 RMK AO2 SLP294 T00861094 $
KRMN - Stafford Regnl, Virginia, USA
Distance from station: S 39mi, 63km
Updated: Tue, 19-Mar-2019 6:35pm EDT
Clear
Clear
 Wind from calm
Wind: Calm
Temperature: 54°F , 12°C
Dew Point: 18°F , -8°C
Humidity: 24%
Barometer: 30.43 inHg , 1030.5 hPa
Clouds: Clear
Visibility: 10 miles , 16 km
2019/03/19 22:35 KRMN 192235Z AUTO 00000KT 10SM CLR 12/M08 A3043 RMK AO2 T01171081
 
KFME - Fort Meade, Maryland, USA
Distance from station: ENE 44mi, 70km
Updated: Tue, 19-Mar-2019 6:21pm EDT
Clear
Clear
 Wind from SSE
Wind: SSE 5 mph , 7 km/h
Temperature: 46°F , 8°C
Wind Chill: 44°F , 7°C
Dew Point: 14°F , -10°C
Humidity: 27%
Barometer: 30.41 inHg , 1029.8 hPa
Clouds: Clear
Visibility: 10 miles , 16 km
2019/03/19 22:21 KFME 192221Z AUTO 15004KT 10SM CLR 08/M10 A3041 RMK AO1
KRSP - Nsf Thurmont, Maryland, USA
Distance from station: N 48mi, 77km
Updated: Tue, 19-Mar-2019 5:54pm EDT
Clear
Clear
 Wind from NW
Wind: NW 7 mph , 11 km/h
Temperature: 41°F , 5°C
Wind Chill: 36°F , 2°C
Dew Point: 14°F , -10°C
Humidity: 33%
Barometer: 30.32 inHg , 1026.8 hPa
Clouds: Clear
Visibility: 10 miles , 16 km
2019/03/19 21:54 KRSP 192154Z AUTO 31006KT 10SM CLR 05/M10 A3032 RMK AO2 SLP289 T00501100 $
 
KEZF - Fredericksb/Shan, Virginia, USA
Distance from station: S 48mi, 78km
Updated: Tue, 19-Mar-2019 6:35pm EDT
Clear
Clear
 Wind from calm
Wind: Calm
Temperature: 52°F , 11°C
Dew Point: 21°F , -6°C
Humidity: 30%
Barometer: 30.38 inHg , 1028.8 hPa
Clouds: Clear
Visibility: 10 miles , 16 km
2019/03/19 22:35 KEZF 192235Z AUTO 00000KT 10SM CLR 11/M06 A3038 RMK AO2 T01051061
KBWI - Balto/Wash Intl, Maryland, USA
Distance from station: ENE 49mi, 80km
Updated: Tue, 19-Mar-2019 5:54pm EDT
Few Clouds
Few Clouds
 Wind from ESE
Wind: ESE 7 mph , 11 km/h
Temperature: 48°F , 9°C
Wind Chill: 45°F , 7°C
Dew Point: 10°F , -12°C
Humidity: 21%
Barometer: 30.38 inHg , 1028.8 hPa
Clouds: Few Clouds
Visibility: 10 miles , 16 km
Cloud details: Few Clouds 25000 ft
2019/03/19 21:54 KBWI 192154Z 11006KT 10SM FEW250 09/M12 A3038 RMK AO2 SLP286 T00891117